»·PEaware :: AAL554 KHOU-KOKC

AAL554 :: KHOU-KOKC

FLIGHT INFORMATION

Flight Status: Arrived
Operator:
American Airlines
More flights by this operator :: More flights under this callsign
Pilot: Shawn Goldsworthy (7208)
Aircraft: BOEING 757-200
(B752)
More flights by this aircraft type
Origin: KHOU Hobby
United States
Destination: KOKC Will Rogers World
United States
More flights between these airports :: More routes between these airports
Route: STYCK4 DOLEY ZEMMA TSDEL2
File this flight plan on PilotEdge
Remarks:
Altitude:
(Current/Filed)
38,000ft
Speed:
(Current/Filed)
480kts
Departed: 03-Jun-17 09:12 PM
Arrived: 03-Jun-17 10:16 PM
Distance/Time
Traveled:
364nm/1:04
Distance/Time
To Go:
Arrived

Flight Plot

Page will automatically refresh every two minutes.

Flight plan parsing failed; only flown route is shown


Map Options




Map Legend


Flown Route
Filed Route
Departure Airport
Arrival Airport
Navaid (VOR, NDB)
Fix

Horizontal Profiles

Position Reports

Time Latitude Longitude Heading Altitude Ground
Speed
03-Jun-17 21:02 29.653326 -95.275024 198 56ft 0kts
03-Jun-17 21:03 29.653326 -95.275024 198 56ft 0kts
03-Jun-17 21:04 29.653326 -95.275024 198 56ft 0kts
03-Jun-17 21:05 29.653326 -95.275024 198 56ft 0kts
03-Jun-17 21:06 29.653326 -95.275024 198 56ft 0kts
03-Jun-17 21:07 29.653608 -95.274809 220 56ft 2kts
03-Jun-17 21:08 29.654103 -95.274346 217 56ft 2kts
03-Jun-17 21:09 29.654307 -95.274169 216 56ft 0kts
03-Jun-17 21:10 29.654249 -95.274212 208 56ft 3kts
03-Jun-17 21:11 29.651054 -95.274677 255 57ft 23kts
03-Jun-17 21:12 29.647829 -95.279440 289 56ft 11kts
03-Jun-17 21:13 29.651140 -95.284686 263 56ft 18kts
03-Jun-17 21:14 29.635271 -95.266970 132 767ft 176kts
03-Jun-17 21:15 29.599575 -95.223266 135 3164ft 235kts
03-Jun-17 21:16 29.572656 -95.152940 69 7271ft 279kts
03-Jun-17 21:17 29.639047 -95.129762 325 11020ft 301kts
03-Jun-17 21:18 29.718665 -95.182325 332 13960ft 356kts
03-Jun-17 21:19 29.808639 -95.234339 330 17552ft 372kts
03-Jun-17 21:20 29.902649 -95.289355 330 20653ft 390kts
03-Jun-17 21:21 30.003434 -95.348618 330 22176ft 443kts
03-Jun-17 21:22 30.117305 -95.415280 331 24152ft 475kts
03-Jun-17 21:23 30.237580 -95.482860 331 26337ft 491kts
03-Jun-17 21:24 30.360004 -95.551930 331 28956ft 490kts
03-Jun-17 21:25 30.481271 -95.620179 331 31453ft 485kts
03-Jun-17 21:26 30.601000 -95.685728 332 33771ft 480kts
03-Jun-17 21:27 30.720739 -95.749898 331 36094ft 472kts
03-Jun-17 21:28 30.839077 -95.813792 332 37962ft 469kts
03-Jun-17 21:29 30.958824 -95.878223 332 37971ft 479kts
03-Jun-17 21:30 31.079232 -95.943108 332 37970ft 479kts
03-Jun-17 21:31 31.201047 -95.996376 338 37966ft 482kts
03-Jun-17 21:32 31.327864 -96.045701 338 37965ft 482kts
03-Jun-17 21:33 31.454774 -96.095077 338 37966ft 482kts
03-Jun-17 21:34 31.581254 -96.144691 338 37966ft 480kts
03-Jun-17 21:35 31.707326 -96.193952 338 37960ft 476kts
03-Jun-17 21:36 31.831921 -96.242625 338 37966ft 476kts
03-Jun-17 21:37 31.957348 -96.291572 338 37966ft 476kts
03-Jun-17 21:38 32.082504 -96.340884 338 37966ft 476kts
03-Jun-17 21:39 32.206405 -96.387960 344 37968ft 478kts
03-Jun-17 21:40 32.335194 -96.423071 344 37963ft 478kts
03-Jun-17 21:41 32.464399 -96.457560 344 37963ft 478kts
03-Jun-17 21:42 32.593504 -96.492472 344 37964ft 478kts
03-Jun-17 21:43 32.722071 -96.527775 344 37964ft 478kts
03-Jun-17 21:44 32.850713 -96.563003 344 37964ft 477kts
03-Jun-17 21:45 32.978820 -96.598026 344 36859ft 472kts
03-Jun-17 21:46 33.106604 -96.632656 344 33945ft 482kts
03-Jun-17 21:47 33.237633 -96.668311 344 33969ft 486kts
03-Jun-17 21:48 33.368975 -96.704481 343 33967ft 486kts
03-Jun-17 21:49 33.499633 -96.741295 343 33994ft 486kts
03-Jun-17 21:50 33.630788 -96.777789 343 33995ft 486kts
03-Jun-17 21:51 33.762534 -96.813989 343 33996ft 485kts
03-Jun-17 21:52 33.891713 -96.850452 343 31512ft 485kts
03-Jun-17 21:53 34.021204 -96.884808 344 28825ft 471kts
03-Jun-17 21:54 34.144794 -96.918742 343 26527ft 450kts
03-Jun-17 21:55 34.259442 -96.951006 343 25298ft 412kts
03-Jun-17 21:56 34.368404 -96.982125 339 23036ft 395kts
03-Jun-17 21:57 34.464021 -97.039426 329 20932ft 379kts
03-Jun-17 21:58 34.555549 -97.097779 329 18958ft 368kts
03-Jun-17 21:59 34.644636 -97.154825 329 17005ft 358kts
03-Jun-17 22:00 34.731389 -97.210520 329 15098ft 348kts
03-Jun-17 22:01 34.812312 -97.266119 325 14010ft 307kts
03-Jun-17 22:02 34.883568 -97.319662 325 12453ft 298kts
03-Jun-17 22:03 34.953197 -97.373084 325 11097ft 294kts
03-Jun-17 22:04 35.021668 -97.425379 325 9719ft 289kts
03-Jun-17 22:05 35.092913 -97.466032 354 8368ft 291kts
03-Jun-17 22:06 35.171400 -97.471747 354 7164ft 286kts
03-Jun-17 22:07 35.250132 -97.476870 354 6966ft 285kts
03-Jun-17 22:08 35.325951 -97.481748 354 6934ft 255kts
03-Jun-17 22:09 35.394737 -97.485747 357 6718ft 239kts
03-Jun-17 22:10 35.460872 -97.485714 357 5966ft 237kts
03-Jun-17 22:11 35.526696 -97.484537 358 5549ft 235kts
03-Jun-17 22:12 35.590784 -97.485762 338 4895ft 221kts
03-Jun-17 22:13 35.608154 -97.551533 270 3969ft 218kts
03-Jun-17 22:14 35.573208 -97.597241 167 3980ft 218kts
03-Jun-17 22:15 35.524175 -97.590217 178 3952ft 201kts
03-Jun-17 22:16 35.465100 -97.589183 180 2587ft 202kts
03-Jun-17 22:17 35.413757 -97.588999 178 1498ft 132kts
03-Jun-17 22:18 35.392193 -97.589703 259 1304ft 14kts
03-Jun-17 22:19 35.393138 -97.592359 350 1305ft 18kts
03-Jun-17 22:20 35.394421 -97.596188 357 1304ft 1kts
03-Jun-17 22:21 35.394628 -97.596203 357 1304ft 0kts
03-Jun-17 22:22 35.394628 -97.596203 357 1304ft 0kts

Navigation Log

Ident Type
Flight plan parsing failed, navigation log unavailable